sensor_id;sensor_type;location;lat;lon;timestamp;P1;durP1;ratioP1;P2;durP2;ratioP2
11016;SDS011;54687;50.800;6.772;2022-07-06T00:02:11;5.07;;;1.80;;
11016;SDS011;54687;50.800;6.772;2022-07-06T00:04:38;3.10;;;1.98;;
11016;SDS011;54687;50.800;6.772;2022-07-06T00:07:06;5.60;;;2.05;;
11016;SDS011;54687;50.800;6.772;2022-07-06T00:09:34;3.10;;;1.90;;
11016;SDS011;54687;50.800;6.772;2022-07-06T00:12:00;3.20;;;1.83;;
11016;SDS011;54687;50.800;6.772;2022-07-06T00:14:26;7.35;;;1.98;;
11016;SDS011;54687;50.800;6.772;2022-07-06T00:16:53;2.75;;;2.00;;
11016;SDS011;54687;50.800;6.772;2022-07-06T00:19:19;4.95;;;2.00;;
11016;SDS011;54687;50.800;6.772;2022-07-06T00:21:46;3.20;;;2.10;;
11016;SDS011;54687;50.800;6.772;2022-07-06T00:24:13;4.60;;;2.25;;
11016;SDS011;54687;50.800;6.772;2022-07-06T00:26:43;4.10;;;1.88;;
11016;SDS011;54687;50.800;6.772;2022-07-06T00:29:09;4.40;;;2.85;;
11016;SDS011;54687;50.800;6.772;2022-07-06T00:31:36;2.22;;;1.60;;
11016;SDS011;54687;50.800;6.772;2022-07-06T00:34:02;4.47;;;2.40;;
11016;SDS011;54687;50.800;6.772;2022-07-06T00:36:28;3.08;;;2.20;;
11016;SDS011;54687;50.800;6.772;2022-07-06T00:38:55;2.13;;;1.75;;
11016;SDS011;54687;50.800;6.772;2022-07-06T00:41:22;2.03;;;1.70;;
11016;SDS011;54687;50.800;6.772;2022-07-06T00:43:49;4.88;;;2.75;;
11016;SDS011;54687;50.800;6.772;2022-07-06T00:46:16;3.00;;;2.25;;
11016;SDS011;54687;50.800;6.772;2022-07-06T00:48:42;5.72;;;2.00;;
11016;SDS011;54687;50.800;6.772;2022-07-06T00:51:09;3.60;;;2.00;;
11016;SDS011;54687;50.800;6.772;2022-07-06T00:53:36;2.47;;;2.15;;
11016;SDS011;54687;50.800;6.772;2022-07-06T00:56:03;4.25;;;2.60;;
11016;SDS011;54687;50.800;6.772;2022-07-06T00:58:31;3.15;;;2.05;;
11016;SDS011;54687;50.800;6.772;2022-07-06T01:00:58;2.45;;;2.25;;
11016;SDS011;54687;50.800;6.772;2022-07-06T01:03:24;2.85;;;2.15;;
11016;SDS011;54687;50.800;6.772;2022-07-06T01:05:50;2.42;;;2.00;;
11016;SDS011;54687;50.800;6.772;2022-07-06T01:08:17;2.78;;;2.10;;
11016;SDS011;54687;50.800;6.772;2022-07-06T01:10:43;4.15;;;2.10;;
11016;SDS011;54687;50.800;6.772;2022-07-06T01:13:10;3.70;;;2.20;;
11016;SDS011;54687;50.800;6.772;2022-07-06T01:15:38;2.30;;;2.10;;
11016;SDS011;54687;50.800;6.772;2022-07-06T01:18:04;6.00;;;2.35;;
11016;SDS011;54687;50.800;6.772;2022-07-06T01:20:32;3.90;;;2.55;;
11016;SDS011;54687;50.800;6.772;2022-07-06T01:22:58;4.43;;;2.47;;
11016;SDS011;54687;50.800;6.772;2022-07-06T01:25:25;3.58;;;2.63;;
11016;SDS011;54687;50.800;6.772;2022-07-06T01:27:51;3.47;;;2.20;;
11016;SDS011;54687;50.800;6.772;2022-07-06T01:30:18;3.08;;;2.33;;
11016;SDS011;54687;50.800;6.772;2022-07-06T01:32:45;2.15;;;1.95;;
11016;SDS011;54687;50.800;6.772;2022-07-06T01:35:13;3.90;;;2.25;;
11016;SDS011;54687;50.800;6.772;2022-07-06T01:37:41;2.10;;;1.90;;
11016;SDS011;54687;50.800;6.772;2022-07-06T01:40:08;2.53;;;2.08;;
11016;SDS011;54687;50.800;6.772;2022-07-06T01:42:35;3.47;;;2.22;;
11016;SDS011;54687;50.800;6.772;2022-07-06T01:45:02;2.63;;;2.40;;
11016;SDS011;54687;50.800;6.772;2022-07-06T01:47:28;2.33;;;2.13;;
11016;SDS011;54687;50.800;6.772;2022-07-06T01:49:57;2.50;;;2.30;;
11016;SDS011;54687;50.800;6.772;2022-07-06T01:52:24;4.25;;;3.00;;
11016;SDS011;54687;50.800;6.772;2022-07-06T01:54:51;3.28;;;2.30;;
11016;SDS011;54687;50.800;6.772;2022-07-06T01:57:18;3.00;;;2.35;;
11016;SDS011;54687;50.800;6.772;2022-07-06T01:59:44;3.55;;;2.75;;
11016;SDS011;54687;50.800;6.772;2022-07-06T02:02:11;2.58;;;2.38;;
11016;SDS011;54687;50.800;6.772;2022-07-06T02:04:38;2.90;;;2.40;;
11016;SDS011;54687;50.800;6.772;2022-07-06T02:07:05;2.28;;;2.00;;
11016;SDS011;54687;50.800;6.772;2022-07-06T02:09:31;2.78;;;2.10;;
11016;SDS011;54687;50.800;6.772;2022-07-06T02:11:59;3.85;;;2.55;;
11016;SDS011;54687;50.800;6.772;2022-07-06T02:14:25;2.60;;;2.10;;
11016;SDS011;54687;50.800;6.772;2022-07-06T02:16:52;2.75;;;1.95;;
11016;SDS011;54687;50.800;6.772;2022-07-06T02:19:18;2.80;;;2.30;;
11016;SDS011;54687;50.800;6.772;2022-07-06T02:21:44;2.50;;;2.30;;
11016;SDS011;54687;50.800;6.772;2022-07-06T02:24:11;3.42;;;2.30;;
11016;SDS011;54687;50.800;6.772;2022-07-06T02:26:37;3.17;;;2.40;;
11016;SDS011;54687;50.800;6.772;2022-07-06T02:29:05;3.75;;;2.60;;
11016;SDS011;54687;50.800;6.772;2022-07-06T02:31:32;4.35;;;2.55;;
11016;SDS011;54687;50.800;6.772;2022-07-06T02:33:58;2.95;;;2.33;;
11016;SDS011;54687;50.800;6.772;2022-07-06T02:36:24;3.72;;;2.40;;
11016;SDS011;54687;50.800;6.772;2022-07-06T02:38:51;4.50;;;2.30;;
11016;SDS011;54687;50.800;6.772;2022-07-06T02:41:17;3.22;;;2.35;;
11016;SDS011;54687;50.800;6.772;2022-07-06T02:43:43;3.70;;;2.60;;
11016;SDS011;54687;50.800;6.772;2022-07-06T02:46:11;4.75;;;2.95;;
11016;SDS011;54687;50.800;6.772;2022-07-06T02:48:38;2.95;;;2.42;;
11016;SDS011;54687;50.800;6.772;2022-07-06T02:51:04;4.20;;;2.78;;
11016;SDS011;54687;50.800;6.772;2022-07-06T02:53:30;2.42;;;2.25;;
11016;SDS011;54687;50.800;6.772;2022-07-06T02:55:57;3.15;;;2.42;;
11016;SDS011;54687;50.800;6.772;2022-07-06T02:58:23;3.88;;;2.58;;
11016;SDS011;54687;50.800;6.772;2022-07-06T03:00:50;3.60;;;2.50;;
11016;SDS011;54687;50.800;6.772;2022-07-06T03:03:18;2.95;;;2.30;;
11016;SDS011;54687;50.800;6.772;2022-07-06T03:05:44;5.03;;;2.67;;
11016;SDS011;54687;50.800;6.772;2022-07-06T03:08:12;3.38;;;2.45;;
11016;SDS011;54687;50.800;6.772;2022-07-06T03:10:38;3.80;;;2.58;;
11016;SDS011;54687;50.800;6.772;2022-07-06T03:13:04;4.10;;;2.38;;
11016;SDS011;54687;50.800;6.772;2022-07-06T03:15:31;2.78;;;2.33;;
11016;SDS011;54687;50.800;6.772;2022-07-06T03:17:57;3.17;;;2.70;;
11016;SDS011;54687;50.800;6.772;2022-07-06T03:20:25;4.43;;;2.65;;
11016;SDS011;54687;50.800;6.772;2022-07-06T03:22:51;4.07;;;3.00;;
11016;SDS011;54687;50.800;6.772;2022-07-06T03:25:18;3.10;;;2.70;;
11016;SDS011;54687;50.800;6.772;2022-07-06T03:27:44;4.82;;;3.10;;
11016;SDS011;54687;50.800;6.772;2022-07-06T03:30:11;3.28;;;2.50;;
11016;SDS011;54687;50.800;6.772;2022-07-06T03:32:39;4.10;;;2.80;;
11016;SDS011;54687;50.800;6.772;2022-07-06T03:35:05;4.22;;;2.67;;
11016;SDS011;54687;50.800;6.772;2022-07-06T03:37:33;3.55;;;2.88;;
11016;SDS011;54687;50.800;6.772;2022-07-06T03:40:00;4.97;;;3.10;;
11016;SDS011;54687;50.800;6.772;2022-07-06T03:42:26;3.70;;;2.97;;
11016;SDS011;54687;50.800;6.772;2022-07-06T03:44:53;3.10;;;2.80;;
11016;SDS011;54687;50.800;6.772;2022-07-06T03:47:19;6.75;;;3.40;;
11016;SDS011;54687;50.800;6.772;2022-07-06T03:49:45;2.95;;;2.70;;
11016;SDS011;54687;50.800;6.772;2022-07-06T03:52:12;5.22;;;3.03;;
11016;SDS011;54687;50.800;6.772;2022-07-06T03:54:39;3.80;;;3.10;;
11016;SDS011;54687;50.800;6.772;2022-07-06T03:57:06;4.55;;;2.92;;
11016;SDS011;54687;50.800;6.772;2022-07-06T03:59:32;5.32;;;3.25;;
11016;SDS011;54687;50.800;6.772;2022-07-06T04:01:59;6.40;;;3.58;;
11016;SDS011;54687;50.800;6.772;2022-07-06T04:04:26;10.07;;;3.45;;
11016;SDS011;54687;50.800;6.772;2022-07-06T04:06:52;3.58;;;3.22;;
11016;SDS011;54687;50.800;6.772;2022-07-06T04:09:18;3.95;;;3.30;;
11016;SDS011;54687;50.800;6.772;2022-07-06T04:11:46;6.85;;;3.65;;
11016;SDS011;54687;50.800;6.772;2022-07-06T04:14:13;4.47;;;3.25;;
11016;SDS011;54687;50.800;6.772;2022-07-06T04:16:39;3.88;;;3.20;;
11016;SDS011;54687;50.800;6.772;2022-07-06T04:19:06;6.28;;;3.15;;
11016;SDS011;54687;50.800;6.772;2022-07-06T04:21:32;3.85;;;3.05;;
11016;SDS011;54687;50.800;6.772;2022-07-06T04:23:59;4.50;;;3.33;;
11016;SDS011;54687;50.800;6.772;2022-07-06T04:26:25;5.13;;;3.30;;
11016;SDS011;54687;50.800;6.772;2022-07-06T04:28:53;4.65;;;3.38;;
11016;SDS011;54687;50.800;6.772;2022-07-06T04:31:19;5.15;;;3.35;;
11016;SDS011;54687;50.800;6.772;2022-07-06T04:33:46;3.92;;;2.97;;
11016;SDS011;54687;50.800;6.772;2022-07-06T04:36:12;3.30;;;3.00;;
11016;SDS011;54687;50.800;6.772;2022-07-06T04:38:38;3.20;;;2.90;;
11016;SDS011;54687;50.800;6.772;2022-07-06T04:41:05;5.53;;;2.80;;
11016;SDS011;54687;50.800;6.772;2022-07-06T04:43:31;4.15;;;2.88;;
11016;SDS011;54687;50.800;6.772;2022-07-06T04:45:59;4.68;;;3.28;;
11016;SDS011;54687;50.800;6.772;2022-07-06T04:48:26;5.80;;;3.00;;
11016;SDS011;54687;50.800;6.772;2022-07-06T04:50:53;4.93;;;2.90;;
11016;SDS011;54687;50.800;6.772;2022-07-06T04:53:19;6.60;;;3.38;;
11016;SDS011;54687;50.800;6.772;2022-07-06T04:55:46;4.93;;;3.00;;
11016;SDS011;54687;50.800;6.772;2022-07-06T04:58:12;4.90;;;3.30;;
11016;SDS011;54687;50.800;6.772;2022-07-06T05:00:39;3.60;;;3.10;;
11016;SDS011;54687;50.800;6.772;2022-07-06T05:03:07;3.28;;;2.97;;
11016;SDS011;54687;50.800;6.772;2022-07-06T05:05:34;5.15;;;3.10;;
11016;SDS011;54687;50.800;6.772;2022-07-06T05:08:00;6.00;;;3.35;;
11016;SDS011;54687;50.800;6.772;2022-07-06T05:10:27;7.28;;;3.10;;
11016;SDS011;54687;50.800;6.772;2022-07-06T05:12:54;4.60;;;2.75;;
11016;SDS011;54687;50.800;6.772;2022-07-06T05:15:21;4.38;;;3.03;;
11016;SDS011;54687;50.800;6.772;2022-07-06T05:17:48;4.55;;;3.05;;
11016;SDS011;54687;50.800;6.772;2022-07-06T05:20:16;3.67;;;2.80;;
11016;SDS011;54687;50.800;6.772;2022-07-06T05:22:42;4.15;;;3.25;;
11016;SDS011;54687;50.800;6.772;2022-07-06T05:25:09;5.38;;;3.30;;
11016;SDS011;54687;50.800;6.772;2022-07-06T05:27:36;3.25;;;2.95;;
11016;SDS011;54687;50.800;6.772;2022-07-06T05:30:03;7.53;;;3.35;;
11016;SDS011;54687;50.800;6.772;2022-07-06T05:32:29;5.97;;;2.95;;
11016;SDS011;54687;50.800;6.772;2022-07-06T05:34:56;5.15;;;3.03;;
11016;SDS011;54687;50.800;6.772;2022-07-06T05:37:23;4.22;;;3.10;;
11016;SDS011;54687;50.800;6.772;2022-07-06T05:39:50;5.22;;;3.10;;
11016;SDS011;54687;50.800;6.772;2022-07-06T05:42:17;5.30;;;3.33;;
11016;SDS011;54687;50.800;6.772;2022-07-06T05:44:44;6.82;;;3.35;;
11016;SDS011;54687;50.800;6.772;2022-07-06T05:47:10;4.80;;;3.13;;
11016;SDS011;54687;50.800;6.772;2022-07-06T05:49:54;4.97;;;3.20;;
11016;SDS011;54687;50.800;6.772;2022-07-06T05:52:41;6.05;;;3.10;;
11016;SDS011;54687;50.800;6.772;2022-07-06T05:55:10;3.00;;;2.70;;
11016;SDS011;54687;50.800;6.772;2022-07-06T05:57:38;9.73;;;2.88;;
11016;SDS011;54687;50.800;6.772;2022-07-06T06:00:06;4.05;;;3.00;;
11016;SDS011;54687;50.800;6.772;2022-07-06T06:02:37;5.93;;;2.50;;
11016;SDS011;54687;50.800;6.772;2022-07-06T06:05:05;5.15;;;2.80;;
11016;SDS011;54687;50.800;6.772;2022-07-06T06:07:32;6.50;;;3.42;;
11016;SDS011;54687;50.800;6.772;2022-07-06T06:10:00;2.75;;;2.45;;
11016;SDS011;54687;50.800;6.772;2022-07-06T06:12:27;5.18;;;2.45;;
11016;SDS011;54687;50.800;6.772;2022-07-06T06:14:53;4.30;;;2.60;;
11016;SDS011;54687;50.800;6.772;2022-07-06T06:17:20;4.50;;;2.05;;
11016;SDS011;54687;50.800;6.772;2022-07-06T06:19:46;4.35;;;2.42;;
11016;SDS011;54687;50.800;6.772;2022-07-06T06:22:13;5.18;;;2.50;;
11016;SDS011;54687;50.800;6.772;2022-07-06T06:24:39;3.55;;;2.30;;
11016;SDS011;54687;50.800;6.772;2022-07-06T06:27:07;5.78;;;2.67;;
11016;SDS011;54687;50.800;6.772;2022-07-06T06:29:34;4.38;;;2.25;;
11016;SDS011;54687;50.800;6.772;2022-07-06T06:34:41;6.38;;;2.20;;
11016;SDS011;54687;50.800;6.772;2022-07-06T06:37:08;3.35;;;1.98;;
11016;SDS011;54687;50.800;6.772;2022-07-06T06:39:34;6.80;;;2.55;;
11016;SDS011;54687;50.800;6.772;2022-07-06T06:42:00;5.20;;;2.67;;
11016;SDS011;54687;50.800;6.772;2022-07-06T06:44:28;4.72;;;2.10;;
11016;SDS011;54687;50.800;6.772;2022-07-06T06:46:55;4.13;;;2.47;;
11016;SDS011;54687;50.800;6.772;2022-07-06T06:49:21;3.60;;;2.10;;
11016;SDS011;54687;50.800;6.772;2022-07-06T06:51:47;6.30;;;2.28;;
11016;SDS011;54687;50.800;6.772;2022-07-06T06:54:14;5.90;;;2.30;;
11016;SDS011;54687;50.800;6.772;2022-07-06T06:56:40;5.80;;;2.30;;
11016;SDS011;54687;50.800;6.772;2022-07-06T06:59:06;3.45;;;2.30;;
11016;SDS011;54687;50.800;6.772;2022-07-06T07:01:34;3.28;;;1.92;;
11016;SDS011;54687;50.800;6.772;2022-07-06T07:04:01;2.40;;;1.70;;
11016;SDS011;54687;50.800;6.772;2022-07-06T07:06:27;3.08;;;1.70;;
11016;SDS011;54687;50.800;6.772;2022-07-06T07:08:53;2.70;;;1.95;;
11016;SDS011;54687;50.800;6.772;2022-07-06T07:11:21;7.45;;;2.28;;
11016;SDS011;54687;50.800;6.772;2022-07-06T07:13:47;5.35;;;2.15;;
11016;SDS011;54687;50.800;6.772;2022-07-06T07:16:14;5.22;;;2.45;;
11016;SDS011;54687;50.800;6.772;2022-07-06T07:18:41;4.70;;;1.70;;
11016;SDS011;54687;50.800;6.772;2022-07-06T07:21:08;6.75;;;1.77;;
11016;SDS011;54687;50.800;6.772;2022-07-06T07:23:34;2.80;;;1.65;;
11016;SDS011;54687;50.800;6.772;2022-07-06T07:26:01;3.65;;;1.92;;
11016;SDS011;54687;50.800;6.772;2022-07-06T07:28:27;6.68;;;2.15;;
11016;SDS011;54687;50.800;6.772;2022-07-06T07:30:54;4.63;;;1.80;;
11016;SDS011;54687;50.800;6.772;2022-07-06T07:33:20;3.20;;;1.50;;
11016;SDS011;54687;50.800;6.772;2022-07-06T07:35:48;4.10;;;2.10;;
11016;SDS011;54687;50.800;6.772;2022-07-06T07:38:14;2.75;;;1.80;;
11016;SDS011;54687;50.800;6.772;2022-07-06T07:40:41;5.10;;;2.20;;
11016;SDS011;54687;50.800;6.772;2022-07-06T07:43:07;3.53;;;1.95;;
11016;SDS011;54687;50.800;6.772;2022-07-06T07:45:34;4.00;;;1.75;;
11016;SDS011;54687;50.800;6.772;2022-07-06T07:48:00;2.15;;;1.45;;
11016;SDS011;54687;50.800;6.772;2022-07-06T07:50:27;3.05;;;1.52;;
11016;SDS011;54687;50.800;6.772;2022-07-06T07:52:55;5.53;;;1.85;;
11016;SDS011;54687;50.800;6.772;2022-07-06T07:55:22;3.10;;;1.85;;
11016;SDS011;54687;50.800;6.772;2022-07-06T07:57:48;3.35;;;1.52;;
11016;SDS011;54687;50.800;6.772;2022-07-06T08:00:15;2.85;;;1.52;;
11016;SDS011;54687;50.800;6.772;2022-07-06T08:02:41;2.67;;;1.40;;
11016;SDS011;54687;50.800;6.772;2022-07-06T08:05:08;1.83;;;1.42;;
11016;SDS011;54687;50.800;6.772;2022-07-06T08:07:38;3.88;;;1.67;;
11016;SDS011;54687;50.800;6.772;2022-07-06T08:10:06;2.35;;;1.60;;
11016;SDS011;54687;50.800;6.772;2022-07-06T08:12:33;7.53;;;1.70;;
11016;SDS011;54687;50.800;6.772;2022-07-06T08:14:59;2.08;;;1.60;;
11016;SDS011;54687;50.800;6.772;2022-07-06T08:17:26;3.72;;;1.75;;
11016;SDS011;54687;50.800;6.772;2022-07-06T08:19:52;3.78;;;2.00;;
11016;SDS011;54687;50.800;6.772;2022-07-06T08:22:19;2.05;;;1.73;;
11016;SDS011;54687;50.800;6.772;2022-07-06T08:24:45;2.55;;;1.80;;
11016;SDS011;54687;50.800;6.772;2022-07-06T08:27:13;3.17;;;1.60;;
11016;SDS011;54687;50.800;6.772;2022-07-06T08:29:39;1.88;;;1.40;;
11016;SDS011;54687;50.800;6.772;2022-07-06T08:32:06;5.10;;;1.48;;
11016;SDS011;54687;50.800;6.772;2022-07-06T08:34:32;3.33;;;1.77;;
11016;SDS011;54687;50.800;6.772;2022-07-06T08:36:59;1.75;;;1.55;;
11016;SDS011;54687;50.800;6.772;2022-07-06T08:39:25;2.78;;;1.63;;
11016;SDS011;54687;50.800;6.772;2022-07-06T08:41:51;2.78;;;1.65;;
11016;SDS011;54687;50.800;6.772;2022-07-06T08:44:19;8.77;;;3.53;;
11016;SDS011;54687;50.800;6.772;2022-07-06T08:46:46;2.45;;;1.60;;
11016;SDS011;54687;50.800;6.772;2022-07-06T08:49:16;2.58;;;1.30;;
11016;SDS011;54687;50.800;6.772;2022-07-06T08:51:43;3.33;;;1.98;;
11016;SDS011;54687;50.800;6.772;2022-07-06T08:54:10;4.45;;;1.30;;
11016;SDS011;54687;50.800;6.772;2022-07-06T08:56:37;3.60;;;1.73;;
11016;SDS011;54687;50.800;6.772;2022-07-06T08:59:03;1.63;;;1.30;;
11016;SDS011;54687;50.800;6.772;2022-07-06T09:01:34;4.38;;;1.58;;
11016;SDS011;54687;50.800;6.772;2022-07-06T09:04:01;1.58;;;1.20;;
11016;SDS011;54687;50.800;6.772;2022-07-06T09:06:29;7.45;;;3.13;;
11016;SDS011;54687;50.800;6.772;2022-07-06T09:08:56;9.35;;;5.32;;
11016;SDS011;54687;50.800;6.772;2022-07-06T09:11:24;6.70;;;2.95;;
11016;SDS011;54687;50.800;6.772;2022-07-06T09:13:50;3.08;;;2.20;;
11016;SDS011;54687;50.800;6.772;2022-07-06T09:16:17;4.70;;;2.08;;
11016;SDS011;54687;50.800;6.772;2022-07-06T09:18:45;4.28;;;2.00;;
11016;SDS011;54687;50.800;6.772;2022-07-06T09:21:11;3.85;;;1.75;;
11016;SDS011;54687;50.800;6.772;2022-07-06T09:23:51;3.67;;;1.75;;
11016;SDS011;54687;50.800;6.772;2022-07-06T09:26:19;7.10;;;4.95;;
11016;SDS011;54687;50.800;6.772;2022-07-06T09:28:45;4.32;;;2.85;;
11016;SDS011;54687;50.800;6.772;2022-07-06T09:31:12;2.63;;;2.10;;
11016;SDS011;54687;50.800;6.772;2022-07-06T09:33:39;4.50;;;2.85;;
11016;SDS011;54687;50.800;6.772;2022-07-06T09:36:22;3.35;;;1.95;;
11016;SDS011;54687;50.800;6.772;2022-07-06T09:39:10;3.13;;;1.90;;
11016;SDS011;54687;50.800;6.772;2022-07-06T09:41:40;1.98;;;1.70;;
11016;SDS011;54687;50.800;6.772;2022-07-06T09:44:06;4.40;;;1.95;;
11016;SDS011;54687;50.800;6.772;2022-07-06T09:46:37;4.35;;;1.92;;
11016;SDS011;54687;50.800;6.772;2022-07-06T09:49:03;3.00;;;1.80;;
11016;SDS011;54687;50.800;6.772;2022-07-06T09:51:36;1.52;;;1.40;;
11016;SDS011;54687;50.800;6.772;2022-07-06T09:54:03;6.30;;;2.90;;
11016;SDS011;54687;50.800;6.772;2022-07-06T09:56:35;2.42;;;1.67;;
11016;SDS011;54687;50.800;6.772;2022-07-06T09:59:04;3.20;;;1.63;;
11016;SDS011;54687;50.800;6.772;2022-07-06T10:01:31;2.95;;;1.58;;
11016;SDS011;54687;50.800;6.772;2022-07-06T10:03:57;4.43;;;1.80;;
11016;SDS011;54687;50.800;6.772;2022-07-06T10:06:24;2.10;;;1.70;;
11016;SDS011;54687;50.800;6.772;2022-07-06T10:08:53;3.00;;;2.25;;
11016;SDS011;54687;50.800;6.772;2022-07-06T10:11:19;2.88;;;1.65;;
11016;SDS011;54687;50.800;6.772;2022-07-06T10:13:46;2.40;;;1.67;;
11016;SDS011;54687;50.800;6.772;2022-07-06T10:16:14;3.88;;;1.65;;
11016;SDS011;54687;50.800;6.772;2022-07-06T10:18:41;4.18;;;2.03;;
11016;SDS011;54687;50.800;6.772;2022-07-06T10:21:09;2.90;;;1.40;;
11016;SDS011;54687;50.800;6.772;2022-07-06T10:23:36;5.10;;;2.92;;
11016;SDS011;54687;50.800;6.772;2022-07-06T10:26:05;5.05;;;3.00;;
11016;SDS011;54687;50.800;6.772;2022-07-06T10:28:32;2.38;;;1.83;;
11016;SDS011;54687;50.800;6.772;2022-07-06T10:30:58;7.13;;;3.15;;
11016;SDS011;54687;50.800;6.772;2022-07-06T10:33:25;5.22;;;2.38;;
11016;SDS011;54687;50.800;6.772;2022-07-06T10:35:52;3.72;;;1.60;;
11016;SDS011;54687;50.800;6.772;2022-07-06T10:38:20;4.95;;;3.25;;
11016;SDS011;54687;50.800;6.772;2022-07-06T10:40:58;4.70;;;1.83;;
11016;SDS011;54687;50.800;6.772;2022-07-06T10:43:35;3.38;;;2.30;;
11016;SDS011;54687;50.800;6.772;2022-07-06T10:46:07;5.53;;;2.75;;
11016;SDS011;54687;50.800;6.772;2022-07-06T10:48:35;3.83;;;2.38;;
11016;SDS011;54687;50.800;6.772;2022-07-06T10:51:02;4.35;;;1.67;;
11016;SDS011;54687;50.800;6.772;2022-07-06T10:53:30;3.53;;;1.38;;
11016;SDS011;54687;50.800;6.772;2022-07-06T10:55:59;2.58;;;1.45;;
11016;SDS011;54687;50.800;6.772;2022-07-06T10:58:37;3.67;;;1.40;;
11016;SDS011;54687;50.800;6.772;2022-07-06T11:01:05;4.03;;;1.65;;
11016;SDS011;54687;50.800;6.772;2022-07-06T11:03:41;2.97;;;1.88;;
11016;SDS011;54687;50.800;6.772;2022-07-06T11:06:12;3.17;;;1.60;;
11016;SDS011;54687;50.800;6.772;2022-07-06T11:08:42;3.10;;;1.23;;
11016;SDS011;54687;50.800;6.772;2022-07-06T11:11:13;2.05;;;1.27;;
11016;SDS011;54687;50.800;6.772;2022-07-06T11:13:44;4.78;;;2.67;;
11016;SDS011;54687;50.800;6.772;2022-07-06T11:16:13;3.78;;;1.70;;
11016;SDS011;54687;50.800;6.772;2022-07-06T11:18:40;1.60;;;1.40;;
11016;SDS011;54687;50.800;6.772;2022-07-06T11:21:19;4.32;;;1.40;;
11016;SDS011;54687;50.800;6.772;2022-07-06T11:23:47;4.20;;;2.70;;
11016;SDS011;54687;50.800;6.772;2022-07-06T11:26:14;5.00;;;1.75;;
11016;SDS011;54687;50.800;6.772;2022-07-06T11:28:41;3.05;;;1.70;;
11016;SDS011;54687;50.800;6.772;2022-07-06T11:31:08;1.90;;;1.35;;
11016;SDS011;54687;50.800;6.772;2022-07-06T11:33:36;1.60;;;1.05;;
11016;SDS011;54687;50.800;6.772;2022-07-06T11:36:13;3.40;;;1.50;;
11016;SDS011;54687;50.800;6.772;2022-07-06T11:38:39;4.70;;;1.67;;
11016;SDS011;54687;50.800;6.772;2022-07-06T11:41:06;3.17;;;1.67;;
11016;SDS011;54687;50.800;6.772;2022-07-06T11:43:32;2.60;;;1.50;;
11016;SDS011;54687;50.800;6.772;2022-07-06T11:45:59;3.17;;;1.75;;
11016;SDS011;54687;50.800;6.772;2022-07-06T11:48:27;1.73;;;1.63;;
11016;SDS011;54687;50.800;6.772;2022-07-06T11:50:57;1.83;;;1.30;;
11016;SDS011;54687;50.800;6.772;2022-07-06T11:53:23;1.65;;;1.40;;
11016;SDS011;54687;50.800;6.772;2022-07-06T11:55:52;3.42;;;1.60;;
11016;SDS011;54687;50.800;6.772;2022-07-06T11:58:19;4.72;;;1.75;;
11016;SDS011;54687;50.800;6.772;2022-07-06T12:03:29;3.53;;;1.88;;
11016;SDS011;54687;50.800;6.772;2022-07-06T12:05:57;3.67;;;1.73;;
11016;SDS011;54687;50.800;6.772;2022-07-06T12:08:24;4.53;;;1.85;;
11016;SDS011;54687;50.800;6.772;2022-07-06T12:10:50;4.80;;;1.70;;
11016;SDS011;54687;50.800;6.772;2022-07-06T12:13:17;2.75;;;1.67;;
11016;SDS011;54687;50.800;6.772;2022-07-06T12:15:44;6.13;;;1.30;;
11016;SDS011;54687;50.800;6.772;2022-07-06T12:18:10;2.17;;;1.33;;
11016;SDS011;54687;50.800;6.772;2022-07-06T12:20:38;1.55;;;0.93;;
11016;SDS011;54687;50.800;6.772;2022-07-06T12:23:05;1.50;;;0.98;;
11016;SDS011;54687;50.800;6.772;2022-07-06T12:25:33;1.70;;;1.20;;
11016;SDS011;54687;50.800;6.772;2022-07-06T12:27:59;1.70;;;1.27;;
11016;SDS011;54687;50.800;6.772;2022-07-06T12:30:26;2.72;;;1.35;;
11016;SDS011;54687;50.800;6.772;2022-07-06T12:35:28;5.40;;;1.42;;
11016;SDS011;54687;50.800;6.772;2022-07-06T12:37:56;3.88;;;1.30;;
11016;SDS011;54687;50.800;6.772;2022-07-06T12:40:25;2.88;;;1.33;;
11016;SDS011;54687;50.800;6.772;2022-07-06T12:42:52;1.95;;;1.30;;
11016;SDS011;54687;50.800;6.772;2022-07-06T12:45:19;3.63;;;2.38;;
11016;SDS011;54687;50.800;6.772;2022-07-06T12:47:58;6.72;;;3.22;;
11016;SDS011;54687;50.800;6.772;2022-07-06T12:50:31;3.08;;;1.25;;
11016;SDS011;54687;50.800;6.772;2022-07-06T12:53:00;3.55;;;1.42;;
11016;SDS011;54687;50.800;6.772;2022-07-06T12:55:27;1.38;;;0.90;;
11016;SDS011;54687;50.800;6.772;2022-07-06T12:57:54;2.97;;;1.10;;
11016;SDS011;54687;50.800;6.772;2022-07-06T13:00:21;3.28;;;0.95;;
11016;SDS011;54687;50.800;6.772;2022-07-06T13:02:49;1.05;;;0.88;;
11016;SDS011;54687;50.800;6.772;2022-07-06T13:05:21;2.20;;;0.80;;
11016;SDS011;54687;50.800;6.772;2022-07-06T13:07:52;1.23;;;1.00;;
11016;SDS011;54687;50.800;6.772;2022-07-06T13:10:20;3.05;;;0.93;;
11016;SDS011;54687;50.800;6.772;2022-07-06T13:12:47;1.88;;;1.38;;
11016;SDS011;54687;50.800;6.772;2022-07-06T13:15:14;4.05;;;1.42;;
11016;SDS011;54687;50.800;6.772;2022-07-06T13:17:40;2.17;;;1.30;;
11016;SDS011;54687;50.800;6.772;2022-07-06T13:20:08;1.15;;;0.90;;
11016;SDS011;54687;50.800;6.772;2022-07-06T13:22:35;2.40;;;0.98;;
11016;SDS011;54687;50.800;6.772;2022-07-06T13:25:01;2.53;;;1.33;;
11016;SDS011;54687;50.800;6.772;2022-07-06T13:27:29;1.15;;;0.98;;
11016;SDS011;54687;50.800;6.772;2022-07-06T13:29:56;3.22;;;1.80;;
11016;SDS011;54687;50.800;6.772;2022-07-06T13:32:22;1.85;;;1.27;;
11016;SDS011;54687;50.800;6.772;2022-07-06T13:34:49;5.68;;;1.00;;
11016;SDS011;54687;50.800;6.772;2022-07-06T13:37:15;2.58;;;1.13;;
11016;SDS011;54687;50.800;6.772;2022-07-06T13:39:42;2.63;;;1.00;;
11016;SDS011;54687;50.800;6.772;2022-07-06T13:42:08;1.90;;;1.40;;
11016;SDS011;54687;50.800;6.772;2022-07-06T13:44:36;3.00;;;2.03;;
11016;SDS011;54687;50.800;6.772;2022-07-06T13:47:04;2.83;;;1.10;;
11016;SDS011;54687;50.800;6.772;2022-07-06T13:49:31;3.35;;;1.10;;
11016;SDS011;54687;50.800;6.772;2022-07-06T13:51:57;4.80;;;1.55;;
11016;SDS011;54687;50.800;6.772;2022-07-06T13:54:29;2.72;;;1.40;;
11016;SDS011;54687;50.800;6.772;2022-07-06T13:56:55;3.45;;;0.90;;
11016;SDS011;54687;50.800;6.772;2022-07-06T13:59:22;2.78;;;1.55;;
11016;SDS011;54687;50.800;6.772;2022-07-06T14:01:50;1.77;;;1.13;;
11016;SDS011;54687;50.800;6.772;2022-07-06T14:04:17;1.35;;;0.85;;
11016;SDS011;54687;50.800;6.772;2022-07-06T14:06:43;1.95;;;1.17;;
11016;SDS011;54687;50.800;6.772;2022-07-06T14:09:10;4.22;;;1.35;;
11016;SDS011;54687;50.800;6.772;2022-07-06T14:11:36;5.88;;;3.15;;
11016;SDS011;54687;50.800;6.772;2022-07-06T14:14:03;3.28;;;1.65;;
11016;SDS011;54687;50.800;6.772;2022-07-06T14:16:31;2.72;;;1.58;;
11016;SDS011;54687;50.800;6.772;2022-07-06T14:19:00;2.90;;;1.50;;
11016;SDS011;54687;50.800;6.772;2022-07-06T14:21:27;3.40;;;1.42;;
11016;SDS011;54687;50.800;6.772;2022-07-06T14:23:54;1.65;;;0.93;;
11016;SDS011;54687;50.800;6.772;2022-07-06T14:26:20;1.77;;;1.13;;
11016;SDS011;54687;50.800;6.772;2022-07-06T14:29:12;1.45;;;1.20;;
11016;SDS011;54687;50.800;6.772;2022-07-06T14:31:39;1.67;;;1.00;;
11016;SDS011;54687;50.800;6.772;2022-07-06T14:34:06;4.05;;;1.52;;
11016;SDS011;54687;50.800;6.772;2022-07-06T14:36:33;6.15;;;1.30;;
11016;SDS011;54687;50.800;6.772;2022-07-06T14:39:00;5.82;;;1.30;;
11016;SDS011;54687;50.800;6.772;2022-07-06T14:41:27;3.72;;;0.82;;
11016;SDS011;54687;50.800;6.772;2022-07-06T14:43:54;3.38;;;1.38;;
11016;SDS011;54687;50.800;6.772;2022-07-06T14:46:20;1.88;;;1.13;;
11016;SDS011;54687;50.800;6.772;2022-07-06T14:48:47;5.07;;;1.40;;
11016;SDS011;54687;50.800;6.772;2022-07-06T14:51:17;3.08;;;1.55;;
11016;SDS011;54687;50.800;6.772;2022-07-06T14:53:50;4.47;;;1.38;;
11016;SDS011;54687;50.800;6.772;2022-07-06T14:56:17;3.42;;;1.30;;
11016;SDS011;54687;50.800;6.772;2022-07-06T14:58:44;1.85;;;1.35;;